sensor_id;sensor_type;location;lat;lon;timestamp;P1;durP1;ratioP1;P2;durP2;ratioP2
84115;SDS011;74211;52.234;9.860;2024-02-26T00:00:46;6.45;;;4.25;;
84115;SDS011;74211;52.234;9.860;2024-02-26T00:03:19;5.28;;;4.47;;
84115;SDS011;74211;52.234;9.860;2024-02-26T00:05:49;6.88;;;4.30;;
84115;SDS011;74211;52.234;9.860;2024-02-26T00:08:19;5.80;;;4.43;;
84115;SDS011;74211;52.234;9.860;2024-02-26T00:10:49;4.43;;;3.65;;
84115;SDS011;74211;52.234;9.860;2024-02-26T00:13:19;6.15;;;4.85;;
84115;SDS011;74211;52.234;9.860;2024-02-26T00:15:49;8.57;;;5.43;;
84115;SDS011;74211;52.234;9.860;2024-02-26T00:18:21;6.05;;;4.68;;
84115;SDS011;74211;52.234;9.860;2024-02-26T00:20:51;5.78;;;4.75;;
84115;SDS011;74211;52.234;9.860;2024-02-26T00:23:21;7.60;;;5.10;;
84115;SDS011;74211;52.234;9.860;2024-02-26T00:25:51;6.55;;;5.13;;
84115;SDS011;74211;52.234;9.860;2024-02-26T00:28:21;5.68;;;4.28;;
84115;SDS011;74211;52.234;9.860;2024-02-26T00:30:51;8.13;;;5.38;;
84115;SDS011;74211;52.234;9.860;2024-02-26T00:33:25;5.75;;;5.15;;
84115;SDS011;74211;52.234;9.860;2024-02-26T00:35:55;7.82;;;5.65;;
84115;SDS011;74211;52.234;9.860;2024-02-26T00:38:25;6.68;;;5.90;;
84115;SDS011;74211;52.234;9.860;2024-02-26T00:40:55;6.28;;;4.65;;
84115;SDS011;74211;52.234;9.860;2024-02-26T00:43:25;6.65;;;4.15;;
84115;SDS011;74211;52.234;9.860;2024-02-26T00:45:55;7.88;;;4.80;;
84115;SDS011;74211;52.234;9.860;2024-02-26T00:48:28;7.15;;;4.63;;
84115;SDS011;74211;52.234;9.860;2024-02-26T00:50:58;5.90;;;4.45;;
84115;SDS011;74211;52.234;9.860;2024-02-26T00:53:28;6.43;;;5.78;;
84115;SDS011;74211;52.234;9.860;2024-02-26T00:55:58;7.20;;;4.82;;
84115;SDS011;74211;52.234;9.860;2024-02-26T00:58:28;5.63;;;4.35;;
84115;SDS011;74211;52.234;9.860;2024-02-26T01:00:58;7.40;;;5.32;;
84115;SDS011;74211;52.234;9.860;2024-02-26T01:03:31;4.75;;;4.20;;
84115;SDS011;74211;52.234;9.860;2024-02-26T01:06:01;9.13;;;4.80;;
84115;SDS011;74211;52.234;9.860;2024-02-26T01:08:31;6.85;;;4.55;;
84115;SDS011;74211;52.234;9.860;2024-02-26T01:11:02;9.13;;;4.28;;
84115;SDS011;74211;52.234;9.860;2024-02-26T01:13:33;8.07;;;5.38;;
84115;SDS011;74211;52.234;9.860;2024-02-26T01:16:03;7.57;;;5.82;;
84115;SDS011;74211;52.234;9.860;2024-02-26T01:18:36;8.27;;;5.07;;
84115;SDS011;74211;52.234;9.860;2024-02-26T01:21:06;6.53;;;5.38;;
84115;SDS011;74211;52.234;9.860;2024-02-26T01:23:36;8.23;;;5.32;;
84115;SDS011;74211;52.234;9.860;2024-02-26T01:26:06;5.00;;;4.45;;
84115;SDS011;74211;52.234;9.860;2024-02-26T01:28:36;7.10;;;4.90;;
84115;SDS011;74211;52.234;9.860;2024-02-26T01:31:06;8.65;;;6.15;;
84115;SDS011;74211;52.234;9.860;2024-02-26T01:33:41;6.68;;;4.95;;
84115;SDS011;74211;52.234;9.860;2024-02-26T01:36:11;7.60;;;4.97;;
84115;SDS011;74211;52.234;9.860;2024-02-26T01:38:41;6.32;;;4.63;;
84115;SDS011;74211;52.234;9.860;2024-02-26T01:41:13;6.68;;;4.80;;
84115;SDS011;74211;52.234;9.860;2024-02-26T01:43:43;5.93;;;5.20;;
84115;SDS011;74211;52.234;9.860;2024-02-26T01:46:13;8.93;;;5.47;;
84115;SDS011;74211;52.234;9.860;2024-02-26T01:48:47;5.50;;;4.57;;
84115;SDS011;74211;52.234;9.860;2024-02-26T01:51:18;10.40;;;5.35;;
84115;SDS011;74211;52.234;9.860;2024-02-26T01:53:49;7.00;;;5.22;;
84115;SDS011;74211;52.234;9.860;2024-02-26T01:56:19;7.50;;;5.82;;
84115;SDS011;74211;52.234;9.860;2024-02-26T01:58:55;10.85;;;7.78;;
84115;SDS011;74211;52.234;9.860;2024-02-26T02:01:25;6.43;;;5.00;;
84115;SDS011;74211;52.234;9.860;2024-02-26T02:03:59;5.63;;;4.50;;
84115;SDS011;74211;52.234;9.860;2024-02-26T02:06:29;7.93;;;5.90;;
84115;SDS011;74211;52.234;9.860;2024-02-26T02:08:59;6.90;;;5.22;;
84115;SDS011;74211;52.234;9.860;2024-02-26T02:11:33;8.13;;;5.60;;
84115;SDS011;74211;52.234;9.860;2024-02-26T02:14:04;8.32;;;5.75;;
84115;SDS011;74211;52.234;9.860;2024-02-26T02:16:34;9.00;;;4.85;;
84115;SDS011;74211;52.234;9.860;2024-02-26T02:19:06;6.15;;;5.25;;
84115;SDS011;74211;52.234;9.860;2024-02-26T02:24:09;7.63;;;4.90;;
84115;SDS011;74211;52.234;9.860;2024-02-26T02:26:39;6.70;;;4.78;;
84115;SDS011;74211;52.234;9.860;2024-02-26T02:29:09;5.72;;;4.93;;
84115;SDS011;74211;52.234;9.860;2024-02-26T02:31:40;6.28;;;4.72;;
84115;SDS011;74211;52.234;9.860;2024-02-26T02:34:11;8.23;;;6.10;;
84115;SDS011;74211;52.234;9.860;2024-02-26T02:36:51;8.10;;;5.32;;
84115;SDS011;74211;52.234;9.860;2024-02-26T02:39:22;9.70;;;5.80;;
84115;SDS011;74211;52.234;9.860;2024-02-26T02:41:52;7.88;;;5.50;;
84115;SDS011;74211;52.234;9.860;2024-02-26T02:44:22;8.60;;;5.53;;
84115;SDS011;74211;52.234;9.860;2024-02-26T02:46:52;11.15;;;6.38;;
84115;SDS011;74211;52.234;9.860;2024-02-26T02:49:22;7.65;;;5.05;;
84115;SDS011;74211;52.234;9.860;2024-02-26T02:51:55;8.27;;;6.32;;
84115;SDS011;74211;52.234;9.860;2024-02-26T02:54:26;11.07;;;6.75;;
84115;SDS011;74211;52.234;9.860;2024-02-26T02:56:56;13.85;;;8.35;;
84115;SDS011;74211;52.234;9.860;2024-02-26T02:59:27;12.23;;;7.13;;
84115;SDS011;74211;52.234;9.860;2024-02-26T03:01:57;9.65;;;8.18;;
84115;SDS011;74211;52.234;9.860;2024-02-26T03:04:27;13.20;;;6.85;;
84115;SDS011;74211;52.234;9.860;2024-02-26T03:07:00;8.45;;;6.97;;
84115;SDS011;74211;52.234;9.860;2024-02-26T03:12:00;8.90;;;5.75;;
84115;SDS011;74211;52.234;9.860;2024-02-26T03:14:30;7.22;;;5.90;;
84115;SDS011;74211;52.234;9.860;2024-02-26T03:17:00;5.50;;;4.80;;
84115;SDS011;74211;52.234;9.860;2024-02-26T03:19:30;6.38;;;4.72;;
84115;SDS011;74211;52.234;9.860;2024-02-26T03:22:03;6.15;;;5.43;;
84115;SDS011;74211;52.234;9.860;2024-02-26T03:24:33;7.20;;;5.13;;
84115;SDS011;74211;52.234;9.860;2024-02-26T03:27:03;7.97;;;5.60;;
84115;SDS011;74211;52.234;9.860;2024-02-26T03:29:36;6.13;;;4.82;;
84115;SDS011;74211;52.234;9.860;2024-02-26T03:32:07;7.18;;;5.78;;
84115;SDS011;74211;52.234;9.860;2024-02-26T03:34:37;7.90;;;4.97;;
84115;SDS011;74211;52.234;9.860;2024-02-26T03:37:10;6.55;;;5.85;;
84115;SDS011;74211;52.234;9.860;2024-02-26T03:39:40;6.65;;;5.15;;
84115;SDS011;74211;52.234;9.860;2024-02-26T03:42:10;5.78;;;4.97;;
84115;SDS011;74211;52.234;9.860;2024-02-26T03:44:40;6.95;;;4.63;;
84115;SDS011;74211;52.234;9.860;2024-02-26T03:47:10;5.50;;;4.95;;
84115;SDS011;74211;52.234;9.860;2024-02-26T03:49:40;4.70;;;3.97;;
84115;SDS011;74211;52.234;9.860;2024-02-26T03:52:12;6.68;;;4.82;;
84115;SDS011;74211;52.234;9.860;2024-02-26T03:54:42;5.82;;;4.75;;
84115;SDS011;74211;52.234;9.860;2024-02-26T03:57:12;8.55;;;5.30;;
84115;SDS011;74211;52.234;9.860;2024-02-26T03:59:42;5.32;;;4.55;;
84115;SDS011;74211;52.234;9.860;2024-02-26T04:02:12;4.80;;;4.20;;
84115;SDS011;74211;52.234;9.860;2024-02-26T04:04:42;5.63;;;4.43;;
84115;SDS011;74211;52.234;9.860;2024-02-26T04:07:15;6.43;;;4.30;;
84115;SDS011;74211;52.234;9.860;2024-02-26T04:09:45;7.80;;;6.07;;
84115;SDS011;74211;52.234;9.860;2024-02-26T04:12:15;5.75;;;4.93;;
84115;SDS011;74211;52.234;9.860;2024-02-26T04:14:45;5.68;;;4.55;;
84115;SDS011;74211;52.234;9.860;2024-02-26T04:17:16;5.70;;;4.35;;
84115;SDS011;74211;52.234;9.860;2024-02-26T04:19:45;5.75;;;5.03;;
84115;SDS011;74211;52.234;9.860;2024-02-26T04:22:18;6.05;;;4.15;;
84115;SDS011;74211;52.234;9.860;2024-02-26T04:24:48;5.82;;;4.75;;
84115;SDS011;74211;52.234;9.860;2024-02-26T04:27:18;6.40;;;4.32;;
84115;SDS011;74211;52.234;9.860;2024-02-26T04:29:48;6.07;;;4.15;;
84115;SDS011;74211;52.234;9.860;2024-02-26T04:32:18;6.05;;;4.50;;
84115;SDS011;74211;52.234;9.860;2024-02-26T04:34:48;6.22;;;5.22;;
84115;SDS011;74211;52.234;9.860;2024-02-26T04:37:21;8.07;;;4.93;;
84115;SDS011;74211;52.234;9.860;2024-02-26T04:39:51;6.30;;;5.70;;
84115;SDS011;74211;52.234;9.860;2024-02-26T04:42:21;8.30;;;4.45;;
84115;SDS011;74211;52.234;9.860;2024-02-26T04:44:51;6.45;;;4.57;;
84115;SDS011;74211;52.234;9.860;2024-02-26T04:47:21;7.25;;;5.25;;
84115;SDS011;74211;52.234;9.860;2024-02-26T04:49:52;6.15;;;5.38;;
84115;SDS011;74211;52.234;9.860;2024-02-26T04:52:25;6.97;;;5.00;;
84115;SDS011;74211;52.234;9.860;2024-02-26T04:54:55;8.23;;;5.07;;
84115;SDS011;74211;52.234;9.860;2024-02-26T04:57:26;5.75;;;5.15;;
84115;SDS011;74211;52.234;9.860;2024-02-26T04:59:56;7.07;;;5.10;;
84115;SDS011;74211;52.234;9.860;2024-02-26T05:02:27;8.02;;;4.80;;
84115;SDS011;74211;52.234;9.860;2024-02-26T05:04:58;7.05;;;4.80;;
84115;SDS011;74211;52.234;9.860;2024-02-26T05:07:31;5.47;;;4.25;;
84115;SDS011;74211;52.234;9.860;2024-02-26T05:10:01;6.78;;;5.22;;
84115;SDS011;74211;52.234;9.860;2024-02-26T05:12:32;6.57;;;5.20;;
84115;SDS011;74211;52.234;9.860;2024-02-26T05:15:02;8.27;;;5.55;;
84115;SDS011;74211;52.234;9.860;2024-02-26T05:17:33;6.45;;;3.88;;
84115;SDS011;74211;52.234;9.860;2024-02-26T05:20:03;7.00;;;4.45;;
84115;SDS011;74211;52.234;9.860;2024-02-26T05:22:37;9.70;;;5.22;;
84115;SDS011;74211;52.234;9.860;2024-02-26T05:27:37;6.22;;;4.53;;
84115;SDS011;74211;52.234;9.860;2024-02-26T05:30:08;7.88;;;5.28;;
84115;SDS011;74211;52.234;9.860;2024-02-26T05:32:38;7.10;;;4.95;;
84115;SDS011;74211;52.234;9.860;2024-02-26T05:35:08;6.35;;;4.32;;
84115;SDS011;74211;52.234;9.860;2024-02-26T05:37:41;6.97;;;5.50;;
84115;SDS011;74211;52.234;9.860;2024-02-26T05:40:12;7.90;;;4.85;;
84115;SDS011;74211;52.234;9.860;2024-02-26T05:42:42;8.23;;;4.95;;
84115;SDS011;74211;52.234;9.860;2024-02-26T05:45:13;6.97;;;4.65;;
84115;SDS011;74211;52.234;9.860;2024-02-26T05:47:43;6.40;;;4.30;;
84115;SDS011;74211;52.234;9.860;2024-02-26T05:50:13;7.78;;;4.38;;
84115;SDS011;74211;52.234;9.860;2024-02-26T05:52:46;9.98;;;4.55;;
84115;SDS011;74211;52.234;9.860;2024-02-26T05:55:16;9.10;;;6.10;;
84115;SDS011;74211;52.234;9.860;2024-02-26T05:57:46;9.88;;;6.38;;
84115;SDS011;74211;52.234;9.860;2024-02-26T06:00:16;8.27;;;4.68;;
84115;SDS011;74211;52.234;9.860;2024-02-26T06:02:47;9.07;;;4.95;;
84115;SDS011;74211;52.234;9.860;2024-02-26T06:05:17;7.57;;;4.75;;
84115;SDS011;74211;52.234;9.860;2024-02-26T06:07:49;7.32;;;5.00;;
84115;SDS011;74211;52.234;9.860;2024-02-26T06:10:19;8.80;;;5.10;;
84115;SDS011;74211;52.234;9.860;2024-02-26T06:12:50;6.75;;;5.60;;
84115;SDS011;74211;52.234;9.860;2024-02-26T06:15:20;8.07;;;5.65;;
84115;SDS011;74211;52.234;9.860;2024-02-26T06:17:50;6.32;;;5.10;;
84115;SDS011;74211;52.234;9.860;2024-02-26T06:20:20;8.07;;;5.47;;
84115;SDS011;74211;52.234;9.860;2024-02-26T06:22:53;9.15;;;6.20;;
84115;SDS011;74211;52.234;9.860;2024-02-26T06:27:53;7.25;;;4.50;;
84115;SDS011;74211;52.234;9.860;2024-02-26T06:30:22;12.63;;;4.97;;
84115;SDS011;74211;52.234;9.860;2024-02-26T06:32:52;13.32;;;5.82;;
84115;SDS011;74211;52.234;9.860;2024-02-26T06:35:22;7.43;;;4.93;;
84115;SDS011;74211;52.234;9.860;2024-02-26T06:37:55;7.90;;;5.97;;
84115;SDS011;74211;52.234;9.860;2024-02-26T06:40:25;8.93;;;5.22;;
84115;SDS011;74211;52.234;9.860;2024-02-26T06:42:55;9.52;;;5.55;;
84115;SDS011;74211;52.234;9.860;2024-02-26T06:45:25;5.03;;;4.53;;
84115;SDS011;74211;52.234;9.860;2024-02-26T06:47:55;6.93;;;5.05;;
84115;SDS011;74211;52.234;9.860;2024-02-26T06:50:25;7.25;;;4.85;;
84115;SDS011;74211;52.234;9.860;2024-02-26T06:52:58;5.22;;;4.63;;
84115;SDS011;74211;52.234;9.860;2024-02-26T06:55:28;8.70;;;5.70;;
84115;SDS011;74211;52.234;9.860;2024-02-26T06:57:58;9.02;;;5.53;;
84115;SDS011;74211;52.234;9.860;2024-02-26T07:00:28;10.93;;;5.40;;
84115;SDS011;74211;52.234;9.860;2024-02-26T07:02:58;7.80;;;5.30;;
84115;SDS011;74211;52.234;9.860;2024-02-26T07:05:28;8.82;;;6.07;;
84115;SDS011;74211;52.234;9.860;2024-02-26T07:08:01;8.07;;;5.47;;
84115;SDS011;74211;52.234;9.860;2024-02-26T07:13:00;9.52;;;5.38;;
84115;SDS011;74211;52.234;9.860;2024-02-26T07:15:30;7.32;;;5.68;;
84115;SDS011;74211;52.234;9.860;2024-02-26T07:18:01;5.57;;;5.05;;
84115;SDS011;74211;52.234;9.860;2024-02-26T07:20:32;8.68;;;5.35;;
84115;SDS011;74211;52.234;9.860;2024-02-26T07:23:04;6.72;;;4.85;;
84115;SDS011;74211;52.234;9.860;2024-02-26T07:25:35;8.93;;;5.43;;
84115;SDS011;74211;52.234;9.860;2024-02-26T07:28:05;9.45;;;5.35;;
84115;SDS011;74211;52.234;9.860;2024-02-26T07:30:35;7.30;;;4.95;;
84115;SDS011;74211;52.234;9.860;2024-02-26T07:33:05;6.97;;;5.15;;
84115;SDS011;74211;52.234;9.860;2024-02-26T07:35:35;6.00;;;4.95;;
84115;SDS011;74211;52.234;9.860;2024-02-26T07:38:08;8.93;;;5.10;;
84115;SDS011;74211;52.234;9.860;2024-02-26T07:40:58;7.95;;;4.80;;
84115;SDS011;74211;52.234;9.860;2024-02-26T07:43:29;7.72;;;5.75;;
84115;SDS011;74211;52.234;9.860;2024-02-26T07:45:59;7.38;;;5.00;;
84115;SDS011;74211;52.234;9.860;2024-02-26T07:48:29;8.10;;;5.13;;
84115;SDS011;74211;52.234;9.860;2024-02-26T07:51:01;7.60;;;5.20;;
84115;SDS011;74211;52.234;9.860;2024-02-26T07:53:34;6.80;;;5.25;;
84115;SDS011;74211;52.234;9.860;2024-02-26T07:56:04;6.07;;;4.95;;
84115;SDS011;74211;52.234;9.860;2024-02-26T07:58:34;6.95;;;5.20;;
84115;SDS011;74211;52.234;9.860;2024-02-26T08:01:02;6.57;;;5.15;;
84115;SDS011;74211;52.234;9.860;2024-02-26T08:03:32;11.35;;;5.82;;
84115;SDS011;74211;52.234;9.860;2024-02-26T08:06:02;6.43;;;5.00;;
84115;SDS011;74211;52.234;9.860;2024-02-26T08:08:36;8.60;;;5.70;;
84115;SDS011;74211;52.234;9.860;2024-02-26T08:13:36;7.50;;;5.20;;
84115;SDS011;74211;52.234;9.860;2024-02-26T08:16:06;10.32;;;5.40;;
84115;SDS011;74211;52.234;9.860;2024-02-26T08:18:36;6.22;;;4.90;;
84115;SDS011;74211;52.234;9.860;2024-02-26T08:21:06;6.07;;;5.13;;
84115;SDS011;74211;52.234;9.860;2024-02-26T08:23:38;7.13;;;4.75;;
84115;SDS011;74211;52.234;9.860;2024-02-26T08:28:38;6.50;;;4.90;;
84115;SDS011;74211;52.234;9.860;2024-02-26T08:31:08;8.85;;;5.65;;
84115;SDS011;74211;52.234;9.860;2024-02-26T08:33:40;5.82;;;4.93;;
84115;SDS011;74211;52.234;9.860;2024-02-26T08:36:11;8.75;;;6.10;;
84115;SDS011;74211;52.234;9.860;2024-02-26T08:38:43;5.97;;;5.07;;
84115;SDS011;74211;52.234;9.860;2024-02-26T08:41:13;7.65;;;5.60;;
84115;SDS011;74211;52.234;9.860;2024-02-26T08:43:43;10.68;;;5.28;;
84115;SDS011;74211;52.234;9.860;2024-02-26T08:46:14;10.15;;;6.00;;
84115;SDS011;74211;52.234;9.860;2024-02-26T08:48:45;8.15;;;6.35;;
84115;SDS011;74211;52.234;9.860;2024-02-26T08:51:16;7.75;;;5.50;;
84115;SDS011;74211;52.234;9.860;2024-02-26T08:53:48;9.60;;;5.82;;
84115;SDS011;74211;52.234;9.860;2024-02-26T08:56:18;5.65;;;4.88;;
84115;SDS011;74211;52.234;9.860;2024-02-26T08:58:48;7.82;;;5.22;;
84115;SDS011;74211;52.234;9.860;2024-02-26T09:01:20;6.82;;;5.50;;
84115;SDS011;74211;52.234;9.860;2024-02-26T09:03:50;7.55;;;5.95;;
84115;SDS011;74211;52.234;9.860;2024-02-26T09:06:20;8.77;;;7.35;;
84115;SDS011;74211;52.234;9.860;2024-02-26T09:08:53;7.82;;;6.53;;
84115;SDS011;74211;52.234;9.860;2024-02-26T09:11:27;8.65;;;6.63;;
84115;SDS011;74211;52.234;9.860;2024-02-26T09:13:57;9.98;;;5.70;;
84115;SDS011;74211;52.234;9.860;2024-02-26T09:16:27;9.25;;;5.93;;
84115;SDS011;74211;52.234;9.860;2024-02-26T09:18:57;8.30;;;5.78;;
84115;SDS011;74211;52.234;9.860;2024-02-26T09:21:27;7.22;;;5.82;;
84115;SDS011;74211;52.234;9.860;2024-02-26T09:24:00;8.50;;;5.78;;
84115;SDS011;74211;52.234;9.860;2024-02-26T09:28:59;6.28;;;5.30;;
84115;SDS011;74211;52.234;9.860;2024-02-26T09:31:30;9.90;;;5.80;;
84115;SDS011;74211;52.234;9.860;2024-02-26T09:34:01;8.38;;;6.00;;
84115;SDS011;74211;52.234;9.860;2024-02-26T09:36:31;8.23;;;5.57;;
84115;SDS011;74211;52.234;9.860;2024-02-26T09:39:04;7.10;;;5.65;;
84115;SDS011;74211;52.234;9.860;2024-02-26T09:41:38;6.15;;;5.25;;
84115;SDS011;74211;52.234;9.860;2024-02-26T09:44:08;13.00;;;4.57;;
84115;SDS011;74211;52.234;9.860;2024-02-26T09:46:39;9.35;;;4.50;;
84115;SDS011;74211;52.234;9.860;2024-02-26T09:49:09;7.57;;;4.65;;
84115;SDS011;74211;52.234;9.860;2024-02-26T09:54:14;9.48;;;5.13;;
84115;SDS011;74211;52.234;9.860;2024-02-26T09:56:47;7.60;;;4.68;;
84115;SDS011;74211;52.234;9.860;2024-02-26T09:59:29;6.15;;;4.57;;
84115;SDS011;74211;52.234;9.860;2024-02-26T10:02:07;5.45;;;4.45;;
84115;SDS011;74211;52.234;9.860;2024-02-26T10:04:41;5.15;;;4.38;;
84115;SDS011;74211;52.234;9.860;2024-02-26T10:07:17;8.82;;;5.32;;
84115;SDS011;74211;52.234;9.860;2024-02-26T10:09:50;5.43;;;4.15;;
84115;SDS011;74211;52.234;9.860;2024-02-26T10:12:20;9.13;;;4.65;;
84115;SDS011;74211;52.234;9.860;2024-02-26T10:14:52;7.45;;;5.47;;
84115;SDS011;74211;52.234;9.860;2024-02-26T10:17:23;6.78;;;4.97;;
84115;SDS011;74211;52.234;9.860;2024-02-26T10:19:54;6.15;;;4.82;;
84115;SDS011;74211;52.234;9.860;2024-02-26T10:22:41;8.18;;;4.93;;
84115;SDS011;74211;52.234;9.860;2024-02-26T10:25:14;5.75;;;5.05;;
84115;SDS011;74211;52.234;9.860;2024-02-26T10:27:45;5.03;;;4.28;;
84115;SDS011;74211;52.234;9.860;2024-02-26T10:30:16;6.30;;;3.63;;
84115;SDS011;74211;52.234;9.860;2024-02-26T10:32:48;6.43;;;3.95;;
84115;SDS011;74211;52.234;9.860;2024-02-26T10:35:19;6.88;;;4.53;;
84115;SDS011;74211;52.234;9.860;2024-02-26T10:37:50;5.32;;;3.72;;
84115;SDS011;74211;52.234;9.860;2024-02-26T10:40:23;5.88;;;5.00;;
84115;SDS011;74211;52.234;9.860;2024-02-26T10:42:53;4.50;;;3.75;;
84115;SDS011;74211;52.234;9.860;2024-02-26T10:45:23;5.97;;;4.45;;
84115;SDS011;74211;52.234;9.860;2024-02-26T10:47:53;7.75;;;4.95;;
84115;SDS011;74211;52.234;9.860;2024-02-26T10:50:23;4.43;;;4.00;;
84115;SDS011;74211;52.234;9.860;2024-02-26T10:52:54;5.70;;;4.00;;
84115;SDS011;74211;52.234;9.860;2024-02-26T10:55:28;5.15;;;3.85;;
84115;SDS011;74211;52.234;9.860;2024-02-26T10:58:01;4.90;;;4.05;;
84115;SDS011;74211;52.234;9.860;2024-02-26T11:00:32;4.32;;;3.38;;
84115;SDS011;74211;52.234;9.860;2024-02-26T11:03:03;4.93;;;3.50;;
84115;SDS011;74211;52.234;9.860;2024-02-26T11:05:36;5.63;;;3.70;;
84115;SDS011;74211;52.234;9.860;2024-02-26T11:08:09;4.70;;;4.07;;
84115;SDS011;74211;52.234;9.860;2024-02-26T11:10:43;4.68;;;3.78;;
84115;SDS011;74211;52.234;9.860;2024-02-26T11:13:17;4.25;;;3.85;;
84115;SDS011;74211;52.234;9.860;2024-02-26T11:15:48;4.78;;;4.10;;
84115;SDS011;74211;52.234;9.860;2024-02-26T11:18:19;5.72;;;3.88;;
84115;SDS011;74211;52.234;9.860;2024-02-26T11:20:51;3.92;;;3.38;;
84115;SDS011;74211;52.234;9.860;2024-02-26T11:23:24;4.65;;;3.58;;
84115;SDS011;74211;52.234;9.860;2024-02-26T11:25:57;3.00;;;2.65;;
84115;SDS011;74211;52.234;9.860;2024-02-26T11:28:28;7.75;;;4.32;;
84115;SDS011;74211;52.234;9.860;2024-02-26T11:31:01;4.75;;;3.88;;
84115;SDS011;74211;52.234;9.860;2024-02-26T11:33:34;4.47;;;3.50;;
84115;SDS011;74211;52.234;9.860;2024-02-26T11:36:07;5.88;;;4.03;;
84115;SDS011;74211;52.234;9.860;2024-02-26T11:38:39;6.00;;;4.20;;
84115;SDS011;74211;52.234;9.860;2024-02-26T11:41:12;8.20;;;4.65;;
84115;SDS011;74211;52.234;9.860;2024-02-26T11:43:49;4.40;;;2.83;;
84115;SDS011;74211;52.234;9.860;2024-02-26T11:46:26;6.43;;;4.65;;
84115;SDS011;74211;52.234;9.860;2024-02-26T11:48:58;5.43;;;4.03;;
84115;SDS011;74211;52.234;9.860;2024-02-26T11:51:32;4.40;;;3.85;;
84115;SDS011;74211;52.234;9.860;2024-02-26T11:54:03;5.18;;;4.22;;
84115;SDS011;74211;52.234;9.860;2024-02-26T11:56:40;6.13;;;3.78;;
84115;SDS011;74211;52.234;9.860;2024-02-26T11:59:10;6.30;;;4.38;;
84115;SDS011;74211;52.234;9.860;2024-02-26T12:01:44;8.75;;;4.00;;
84115;SDS011;74211;52.234;9.860;2024-02-26T12:04:16;5.70;;;3.83;;
84115;SDS011;74211;52.234;9.860;2024-02-26T12:06:50;5.82;;;4.60;;
84115;SDS011;74211;52.234;9.860;2024-02-26T12:09:31;7.47;;;4.00;;
84115;SDS011;74211;52.234;9.860;2024-02-26T12:12:06;5.30;;;4.00;;
84115;SDS011;74211;52.234;9.860;2024-02-26T12:14:37;5.10;;;3.40;;
84115;SDS011;74211;52.234;9.860;2024-02-26T12:17:08;8.38;;;4.57;;
84115;SDS011;74211;52.234;9.860;2024-02-26T12:19:49;5.85;;;4.53;;
84115;SDS011;74211;52.234;9.860;2024-02-26T12:22:20;4.63;;;3.40;;
84115;SDS011;74211;52.234;9.860;2024-02-26T12:24:57;7.07;;;4.57;;
84115;SDS011;74211;52.234;9.860;2024-02-26T12:27:32;7.88;;;4.82;;
84115;SDS011;74211;52.234;9.860;2024-02-26T12:30:02;7.88;;;4.25;;
84115;SDS011;74211;52.234;9.860;2024-02-26T12:32:33;6.70;;;3.92;;
84115;SDS011;74211;52.234;9.860;2024-02-26T12:35:05;6.13;;;4.25;;
84115;SDS011;74211;52.234;9.860;2024-02-26T12:37:37;6.05;;;4.32;;
84115;SDS011;74211;52.234;9.860;2024-02-26T12:40:10;6.00;;;3.85;;
84115;SDS011;74211;52.234;9.860;2024-02-26T12:42:44;5.78;;;3.85;;
84115;SDS011;74211;52.234;9.860;2024-02-26T12:45:15;5.78;;;5.18;;
84115;SDS011;74211;52.234;9.860;2024-02-26T12:47:45;6.30;;;4.40;;
84115;SDS011;74211;52.234;9.860;2024-02-26T12:50:17;7.47;;;4.50;;
84115;SDS011;74211;52.234;9.860;2024-02-26T12:52:47;6.85;;;5.00;;
84115;SDS011;74211;52.234;9.860;2024-02-26T12:55:17;7.00;;;5.15;;
84115;SDS011;74211;52.234;9.860;2024-02-26T12:57:51;7.85;;;5.63;;
84115;SDS011;74211;52.234;9.860;2024-02-26T13:00:23;6.65;;;5.45;;
84115;SDS011;74211;52.234;9.860;2024-02-26T13:02:55;6.68;;;4.55;;
84115;SDS011;74211;52.234;9.860;2024-02-26T13:05:27;7.57;;;4.78;;
84115;SDS011;74211;52.234;9.860;2024-02-26T13:07:58;6.38;;;4.45;;
84115;SDS011;74211;52.234;9.860;2024-02-26T13:10:32;9.63;;;5.53;;
84115;SDS011;74211;52.234;9.860;2024-02-26T13:13:04;6.72;;;3.78;;
84115;SDS011;74211;52.234;9.860;2024-02-26T13:15:36;7.32;;;5.85;;
84115;SDS011;74211;52.234;9.860;2024-02-26T13:18:09;6.35;;;5.63;;
84115;SDS011;74211;52.234;9.860;2024-02-26T13:20:37;8.30;;;5.60;;
84115;SDS011;74211;52.234;9.860;2024-02-26T13:23:07;7.47;;;4.38;;
84115;SDS011;74211;52.234;9.860;2024-02-26T13:25:40;6.28;;;4.72;;
84115;SDS011;74211;52.234;9.860;2024-02-26T13:28:15;6.82;;;6.13;;
84115;SDS011;74211;52.234;9.860;2024-02-26T13:30:50;7.65;;;4.90;;
84115;SDS011;74211;52.234;9.860;2024-02-26T13:33:23;6.60;;;5.75;;
84115;SDS011;74211;52.234;9.860;2024-02-26T13:35:54;9.75;;;5.43;;
84115;SDS011;74211;52.234;9.860;2024-02-26T13:38:25;6.82;;;4.40;;
84115;SDS011;74211;52.234;9.860;2024-02-26T13:40:56;7.15;;;5.60;;
84115;SDS011;74211;52.234;9.860;2024-02-26T13:43:29;7.05;;;5.68;;
84115;SDS011;74211;52.234;9.860;2024-02-26T13:46:00;7.07;;;4.68;;
84115;SDS011;74211;52.234;9.860;2024-02-26T13:48:30;7.68;;;4.47;;
84115;SDS011;74211;52.234;9.860;2024-02-26T13:51:01;11.05;;;6.72;;
84115;SDS011;74211;52.234;9.860;2024-02-26T13:53:31;6.55;;;5.22;;
84115;SDS011;74211;52.234;9.860;2024-02-26T13:56:01;6.93;;;5.97;;
84115;SDS011;74211;52.234;9.860;2024-02-26T13:58:35;7.47;;;4.80;;
84115;SDS011;74211;52.234;9.860;2024-02-26T14:01:05;7.80;;;5.45;;
84115;SDS011;74211;52.234;9.860;2024-02-26T14:03:35;7.45;;;5.85;;
84115;SDS011;74211;52.234;9.860;2024-02-26T14:06:05;8.90;;;6.13;;
84115;SDS011;74211;52.234;9.860;2024-02-26T14:08:36;7.35;;;6.22;;
84115;SDS011;74211;52.234;9.860;2024-02-26T14:11:06;6.57;;;5.15;;
84115;SDS011;74211;52.234;9.860;2024-02-26T14:13:38;7.60;;;5.32;;
84115;SDS011;74211;52.234;9.860;2024-02-26T14:16:11;8.50;;;6.28;;
84115;SDS011;74211;52.234;9.860;2024-02-26T14:18:43;10.20;;;6.28;;
84115;SDS011;74211;52.234;9.860;2024-02-26T14:21:13;9.02;;;5.38;;
84115;SDS011;74211;52.234;9.860;2024-02-26T14:23:43;8.63;;;5.55;;
84115;SDS011;74211;52.234;9.860;2024-02-26T14:26:13;7.82;;;6.00;;
84115;SDS011;74211;52.234;9.860;2024-02-26T14:28:46;8.40;;;5.72;;
84115;SDS011;74211;52.234;9.860;2024-02-26T14:31:17;8.55;;;5.70;;
84115;SDS011;74211;52.234;9.860;2024-02-26T14:33:47;9.45;;;6.88;;
84115;SDS011;74211;52.234;9.860;2024-02-26T14:36:20;9.57;;;5.95;;
84115;SDS011;74211;52.234;9.860;2024-02-26T14:38:51;8.00;;;6.07;;
84115;SDS011;74211;52.234;9.860;2024-02-26T14:41:21;8.57;;;6.35;;
84115;SDS011;74211;52.234;9.860;2024-02-26T14:43:53;7.43;;;6.07;;
84115;SDS011;74211;52.234;9.860;2024-02-26T14:46:23;10.00;;;6.63;;
84115;SDS011;74211;52.234;9.860;2024-02-26T14:48:53;6.78;;;6.03;;
84115;SDS011;74211;52.234;9.860;2024-02-26T14:51:23;8.82;;;6.03;;
84115;SDS011;74211;52.234;9.860;2024-02-26T14:53:53;8.93;;;6.05;;
84115;SDS011;74211;52.234;9.860;2024-02-26T14:56:26;8.45;;;5.05;;
84115;SDS011;74211;52.234;9.860;2024-02-26T14:58:58;8.65;;;6.13;;
84115;SDS011;74211;52.234;9.860;2024-02-26T15:01:28;10.07;;;5.68;;
84115;SDS011;74211;52.234;9.860;2024-02-26T15:03:58;9.82;;;5.88;;
84115;SDS011;74211;52.234;9.860;2024-02-26T15:06:30;9.65;;;6.03;;
84115;SDS011;74211;52.234;9.860;2024-02-26T15:09:01;12.52;;;6.72;;
84115;SDS011;74211;52.234;9.860;2024-02-26T15:11:33;11.60;;;6.68;;
84115;SDS011;74211;52.234;9.860;2024-02-26T15:14:09;10.50;;;7.07;;
84115;SDS011;74211;52.234;9.860;2024-02-26T15:16:39;9.50;;;6.75;;
84115;SDS011;74211;52.234;9.860;2024-02-26T15:19:10;10.75;;;7.38;;
84115;SDS011;74211;52.234;9.860;2024-02-26T15:21:43;9.45;;;7.00;;
84115;SDS011;74211;52.234;9.860;2024-02-26T15:24:14;11.77;;;7.13;;
84115;SDS011;74211;52.234;9.860;2024-02-26T15:26:45;7.47;;;6.60;;
84115;SDS011;74211;52.234;9.860;2024-02-26T15:29:18;8.52;;;6.53;;
84115;SDS011;74211;52.234;9.860;2024-02-26T15:31:48;10.85;;;6.00;;